Flight Track Log - Related Links

Times and Time Zones

All times are in EDT time to prevent confusion due to time zone crossing. See the FLG3862 flight status page for this flight to view local times or setup timezone preferences in your user account.

Time Position Orientation Groundspeed Altitude Reporting Facility
EDT Latitude Longitude Course Direction KTS MPH feet Rate Location/Type
Sat 10:39:17 AM 42.2017 -83.3553 90° East 154 177 1,300  Level Cleveland Center
Sat 10:40:25 AM 42.1453 -83.3586 183° South 197 227 3,800 2,133 Climbing Cleveland Center
Sat 10:41:32 AM 42.0811 -83.3361 165° South 261 300 6,100 2,080 Climbing Cleveland Center
Sat 10:42:00 AM 42.3116 -82.7753 75° East  Level FlightAware Approximate
Sat 10:43:00 AM 42.3288 -82.6285 82° East  Level FlightAware Approximate
Sat 10:43:21 AM 42.0625 -83.1536 98° East 300 345 9,900  Level Cleveland Center
Sat 10:44:00 AM 42.3500 -82.4838 90° East  Level FlightAware Approximate
Sat 10:44:21 AM 42.1061 -83.0600 58° Northeast 271 312 10,200  Level Cleveland Center
Sat 10:45:21 AM 42.1478 -82.9636 60° Northeast 278 320 11,800 2,150 Climbing Cleveland Center
Sat 10:46:21 AM 42.1894 -82.8617 61° Northeast 291 335 14,500 2,400 Climbing Cleveland Center
Sat 10:47:21 AM 42.2353 -82.7622 58° Northeast 304 350 16,600 1,850 Climbing Cleveland Center
Sat 10:48:21 AM 42.2789 -82.6572 61° Northeast 309 356 18,200 1,650 Climbing Cleveland Center
Sat 10:49:21 AM 42.3244 -82.5489 60° Northeast 309 356 19,900 1,600 Climbing Cleveland Center
Sat 10:50:21 AM 42.3661 -82.4350 64° Northeast 320 368 21,400 1,500 Climbing Cleveland Center
Sat 10:51:21 AM 42.3619 -82.2972 92° East 335 386 22,900 1,400 Climbing Cleveland Center
Sat 10:52:21 AM 42.3556 -82.1594 94° East 348 400 24,200 1,250 Climbing Cleveland Center
Sat 10:53:21 AM 42.3492 -82.0189 93° East 369 425 25,400 1,150 Climbing Cleveland Center
Sat 10:54:21 AM 42.3444 -81.8725 92° East 381 438 26,500 800 Climbing Cleveland Center
Sat 10:55:21 AM 42.3378 -81.7406 94° East 391 450 27,000 250 Climbing Cleveland Center
Sat 10:56:21 AM 42.3308 -81.5914 94° East 391 450 27,000  Level Cleveland Center
Sat 10:57:21 AM 42.3236 -81.4453 94° East 398 458 27,000  Level Cleveland Center
Sat 10:58:21 AM 42.3164 -81.2964 94° East 398 458 27,000  Level Cleveland Center
Sat 10:59:21 AM 42.3089 -81.1419 94° East 403 464 27,000  Level Cleveland Center
Sat 11:00:21 AM 42.2992 -80.9761 94° East 403 464 27,000  Level Cleveland Center
Sat 11:01:21 AM 42.2911 -80.8244 94° East 408 470 27,000  Level Cleveland Center
Sat 11:02:21 AM 42.2850 -80.6758 93° East 407 468 27,000  Level Cleveland Center
Sat 11:03:21 AM 42.2767 -80.5214 94° East 407 468 27,000  Level Cleveland Center
Sat 11:04:21 AM 42.2683 -80.3700 94° East 407 468 27,000  Level Cleveland Center
Sat 11:05:21 AM 42.2594 -80.2156 94° East 407 468 27,000  Level Cleveland Center
Sat 11:06:21 AM 42.2486 -80.0614 95° East 407 468 27,000  Level Cleveland Center
Sat 11:07:22 AM 42.2417 -79.9269 94° East 407 468 27,000  Level Cleveland Center
Sat 11:08:21 AM 42.2322 -79.7728 95° East 407 468 27,000  Level Cleveland Center
Sat 11:09:21 AM 42.2206 -79.6186 96° East 407 468 27,000  Level Cleveland Center
Sat 11:10:21 AM 42.2108 -79.4675 95° East 407 468 27,000  Level Cleveland Center
Sat 11:11:21 AM 42.2011 -79.3106 95° East 407 468 27,000  Level Cleveland Center
Sat 11:12:21 AM 42.1908 -79.1622 95° East 407 468 27,000  Level Cleveland Center
Sat 11:13:21 AM 42.2225 -79.0214 73° East 390 449 27,000  Level Cleveland Center
Sat 11:14:21 AM 42.2686 -78.8911 64° Northeast 383 441 27,000  Level Cleveland Center
Sat 11:15:21 AM 42.3167 -78.7608 63° Northeast 383 441 27,000  Level Cleveland Center
Sat 11:16:21 AM 42.3622 -78.6275 65° Northeast 383 441 27,000  Level Cleveland Center
Sat 11:17:21 AM 42.4081 -78.4967 65° Northeast 383 441 27,000  Level Cleveland Center
Sat 11:18:21 AM 42.4536 -78.3656 65° Northeast 383 441 27,000  Level Cleveland Center
Sat 11:19:21 AM 42.4967 -78.2344 66° East 383 441 27,000  Level Cleveland Center
Sat 11:20:21 AM 42.5419 -78.1006 65° Northeast 383 441 27,000  Level Cleveland Center
Sat 11:21:21 AM 42.5847 -77.9689 66° East 378 435 27,000  Level Cleveland Center
Sat 11:22:21 AM 42.6297 -77.8372 65° Northeast 378 435 27,000  Level Cleveland Center
Sat 11:23:21 AM 42.6764 -77.6942 66° East 378 435 27,000  Level Cleveland Center
Sat 11:24:21 AM 42.7192 -77.5761 64° Northeast 378 435 27,000  Level Cleveland Center
Sat 11:26:28 AM 42.8119 -77.2867 66° East 381 438 27,000  Level Boston Center
Sat 11:27:28 AM 42.8569 -77.1569 65° Northeast 386 444 27,000  Level Boston Center
Sat 11:28:28 AM 42.9000 -77.0242 66° East 386 444 27,000  Level Boston Center
Sat 11:29:28 AM 42.9428 -76.8911 66° East 386 444 27,000  Level Boston Center
Sat 11:30:28 AM 42.9856 -76.7550 67° East 386 444 27,000  Level Boston Center
Sat 11:31:28 AM 43.0208 -76.6494 65° Northeast 386 444 27,000  Level Boston Center
Sat 11:32:28 AM 43.0678 -76.5047 66° East 386 444 27,000  Level Boston Center
Sat 11:33:28 AM 43.1122 -76.3711 65° Northeast 386 444 27,000  Level Boston Center
Sat 11:34:28 AM 43.1542 -76.2344 67° East 386 444 27,000  Level Boston Center
Sat 11:35:28 AM 43.2144 -76.1183 55° Northeast 379 436 27,000  Level Boston Center
Sat 11:36:28 AM 43.2781 -76.0139 50° Northeast 373 429 27,000  Level Boston Center
Sat 11:37:28 AM 43.3442 -75.9006 51° Northeast 368 423 27,000  Level Boston Center
Sat 11:38:28 AM 43.4100 -75.7900 51° Northeast 368 423 27,000  Level Boston Center
Sat 11:39:28 AM 43.4758 -75.6764 51° Northeast 368 423 27,000  Level Boston Center
Sat 11:40:28 AM 43.5458 -75.5539 52° Northeast 368 423 27,000  Level Boston Center
Sat 11:41:28 AM 43.6114 -75.4397 52° Northeast 368 423 27,000  Level Boston Center
Sat 11:42:28 AM 43.6769 -75.3253 52° Northeast 368 423 27,000  Level Boston Center
Sat 11:43:28 AM 43.7422 -75.2133 51° Northeast 368 423 27,000  Level Boston Center
Sat 11:44:28 AM 43.8075 -75.0986 52° Northeast 368 423 27,000  Level Boston Center
Sat 11:45:28 AM 43.8728 -74.9833 52° Northeast 368 423 27,000  Level Boston Center
Sat 11:46:28 AM 43.9356 -74.8706 52° Northeast 368 423 27,000 -400 Level Boston Center
Sat 11:47:28 AM 44.0003 -74.7578 51° Northeast 368 423 26,200 -1,450 Descending Boston Center
Sat 11:48:28 AM 44.0631 -74.6475 52° Northeast 362 417 24,100 -2,050 Descending Boston Center
Sat 11:49:28 AM 44.1172 -74.5339 56° Northeast 357 411 22,100 -2,000 Descending Boston Center
Sat 11:50:28 AM 44.1528 -74.4019 69° East 357 411 20,100 -2,000 Descending Boston Center
Sat 11:51:28 AM 44.1886 -74.2642 70° East 367 422 18,100 -1,600 Descending Boston Center
Sat 11:52:28 AM 44.2239 -74.1261 70° East 372 428 16,900 -1,400 Descending Boston Center
Sat 11:53:28 AM 44.2528 -74.0139 70° East 359 413 15,300 -1,650 Descending Boston Center
Sat 11:54:28 AM 44.2856 -73.8842 71° East 354 407 13,600 -1,700 Descending Boston Center
Sat 11:55:28 AM 44.3264 -73.7750 62° Northeast 335 386 11,900 -1,750 Descending Boston Center
Sat 11:56:28 AM 44.3717 -73.6597 61° Northeast 306 352 10,100 -1,850 Descending Boston Center
Sat 11:57:28 AM 44.4122 -73.5619 60° Northeast 295 339 8,200 -1,750 Descending Boston Center
Sat 11:58:28 AM 44.4506 -73.4725 59° Northeast 276 318 6,600 -1,300 Descending Boston Center
Sat 11:59:28 AM 44.4822 -73.4061 56° Northeast 249 287 5,600 -1,450 Descending Boston Center
Sat 12:00:28 PM 44.5119 -73.3425 57° Northeast 209 241 3,700 -1,600 Descending Boston Center
Sat 12:01:28 PM 44.5250 -73.2758 75° East 178 205 2,400 -1,300 Descending Boston Center

Login

Don't have an account? Register now (free) for customized features, flight alerts, and more!